Mount Rainier National Park, WA

9:36 PM PDT on September 01, 2014 (GMT -0700)
RAWS HAGER CREEK WA US | Change Station
CLOSE
Current Station
Personal Weather Station
Location: Packwood, WA
Elevation: 3600 ft
Nearby Weather Stations

Elev 3600 ft 46.56 °N, 121.63 °W | Updated 43 minutes ago

Clear
Clear
52 °F
Feels Like 52 °F
N
1
Wind Variable Wind from ESE
Gusts 3.0 mph

Today
High -- | Low -- °F
--% Chance of Precip.
Yesterday
High -- | Low -- °F
Precip. -- in
6:27 AM 7:46 PM
Waxing Crescent, 47% visible
Pressure 30.07 in
Visibility 10.0 miles
Clouds Clear
Dew Point 49 °F
Humidity 90%
Rainfall 0.00 in
Snow Depth 0 in , 0 in
UV 0 out of 12
Pollen 3.10 out of 12
Air Quality Not available.
Flu Activity Not available.
METAR KSMP 020356Z AUTO VRB03KT 10SM CLR 09/08 A3007 RMK AO2 SLP182 T00940078 $

More Conditions Fewer Conditions

Pressure 30.07 in
Visibility 10.0 miles
Clouds Clear
Dew Point 49 °F
Humidity 90%
Rainfall 0.00 in
Snow Depth 0 in , 0 in
UV 0 out of 12
Pollen 3.10 out of 12
Air Quality Not available.
Flu Activity Not available.
METAR KSMP 020356Z AUTO VRB03KT 10SM CLR 09/08 A3007 RMK AO2 SLP182 T00940078 $

More Conditions Fewer Conditions

10-Day Weather Forecast

Almanac

Astronomy

Sep. 01, 2014 Rise Set
Actual Time 6:27 AM PDT 7:46 PM PDT
Civil Twilight 5:55 AM PDT 8:17 PM PDT
Nautical Twilight 5:17 AM PDT 8:55 PM PDT
Astronomical Twilight 4:37 AM PDT 9:35 PM PDT
Moon 1:43 PM PDT (9/1) 11:26 PM PDT (9/1)
Length of Visible Light 14h 21m
Length of Day
13h 19m
Tomorrow will be 3m 13s shorter.
Waxing Crescent, 47% of the Moon is Illuminated
Sep 2
Waxing Crescent
Sep 2
First Quarter
Sep 8
Full
Sep 15
Last Quarter
Sep 24
New

Today's Extremes

State Highs State Lows

Community

WunderPhotos

Upload Photos

1,749,566 photos uploaded!

WunderBlogs® & News

Nearby

Snow Depth

Station Depth Elevation
Burnt Mountain 0 in 4200 ft
Morse Lake 0 in 5400 ft
Pigtail Peak 0 in 5900 ft
Lone Pine 0 in 3800 ft
Potato Hill 0 in 4500 ft

Earthquake Activity

City Distance Mag. Time & Date
No recent earthquake activity has been reported nearby.
Minimum magnitude displayed is 2.5.

Coastal Water Temperatures

Place Temperature
No Stations Reporting

Nearby Weather Stations